Time;durP1;ratioP1;P1;durP2;ratioP2;P2;SDS_P1;SDS_P2;PMS_P1;PMS_P2;Temp;Humidity;BMP_temperature;BMP_pressure;BME280_temperature;BME280_humidity;BME280_pressure;Samples;Min_cycle;Max_cycle;Signal;HPM_P1;HPM_P2
2022/12/24 00:01:44;;;;;;;27.40;10.40;;;;;;;7.37;100.00;99050.14;104019;1283;22472;-59
2022/12/24 00:04:16;;;;;;;21.00;9.20;;;;;;;7.36;100.00;99054.46;103682;1306;25358;-59
2022/12/24 00:06:48;;;;;;;23.00;10.00;;;;;;;7.36;100.00;99054.30;103404;1296;22433;-61
2022/12/24 00:09:20;;;;;;;25.30;9.40;;;;;;;7.39;100.00;99057.52;103481;1286;22475;-59
2022/12/24 00:11:52;;;;;;;24.40;8.60;;;;;;;7.42;100.00;99056.25;103499;1301;22460;-58
2022/12/24 00:14:24;;;;;;;15.10;6.40;;;;;;;7.43;100.00;99053.24;103675;1288;28189;-60
2022/12/24 00:16:56;;;;;;;17.90;7.60;;;;;;;7.45;100.00;99047.30;103571;1300;22472;-59
2022/12/24 00:19:28;;;;;;;20.90;9.50;;;;;;;7.46;100.00;99042.67;103426;1283;24379;-59
2022/12/24 00:22:00;;;;;;;27.00;11.10;;;;;;;7.48;100.00;99036.48;103519;1306;24894;-61
2022/12/24 00:24:31;;;;;;;34.50;12.50;;;;;;;7.47;100.00;99034.70;103447;1299;24280;-59
2022/12/24 00:27:04;;;;;;;33.40;13.80;;;;;;;7.47;100.00;99033.85;103664;1287;22461;-60
2022/12/24 00:29:36;;;;;;;29.10;12.90;;;;;;;7.46;100.00;99040.95;103640;1306;25960;-60
2022/12/24 00:32:10;;;;;;;27.60;11.50;;;;;;;7.47;100.00;99048.18;103502;1306;22745;-60
2022/12/24 00:34:44;;;;;;;32.80;13.30;;;;;;;7.47;100.00;99053.64;103483;1285;22411;-59
2022/12/24 00:37:15;;;;;;;26.50;11.50;;;;;;;7.46;100.00;99054.92;103405;1276;24261;-59
2022/12/24 00:39:47;;;;;;;29.70;12.80;;;;;;;7.46;100.00;99047.86;103402;1289;22493;-59
2022/12/24 00:42:18;;;;;;;29.90;13.40;;;;;;;7.47;100.00;99045.21;103425;1306;22481;-58
2022/12/24 00:44:50;;;;;;;33.90;15.10;;;;;;;7.46;100.00;99045.60;103489;1306;22790;-61
2022/12/24 00:47:22;;;;;;;31.30;14.50;;;;;;;7.45;100.00;99049.08;103471;1283;22468;-57
2022/12/24 00:49:54;;;;;;;28.50;13.10;;;;;;;7.45;100.00;99049.33;103380;1306;22498;-59
2022/12/24 00:52:26;;;;;;;34.80;14.40;;;;;;;7.45;100.00;99050.84;103509;1285;25453;-60
2022/12/24 00:54:57;;;;;;;30.20;14.80;;;;;;;7.43;100.00;99051.22;103454;1302;22474;-59
2022/12/24 00:57:29;;;;;;;31.50;13.60;;;;;;;7.42;100.00;99050.14;103414;1283;22469;-60
2022/12/24 01:00:00;;;;;;;30.50;12.90;;;;;;;7.41;100.00;99051.71;103407;1306;25161;-62
2022/12/24 01:02:32;;;;;;;30.60;11.80;;;;;;;7.38;100.00;99048.58;103590;1281;22594;-60
2022/12/24 01:05:13;;;;;;;27.60;12.40;;;;;;;7.34;100.00;99049.33;103524;1303;22461;-60
2022/12/24 01:07:45;;;;;;;27.30;13.30;;;;;;;7.27;100.00;99052.73;103358;1304;22860;-60
2022/12/24 01:10:18;;;;;;;30.10;12.30;;;;;;;7.22;100.00;99056.05;103446;1286;25368;-59
2022/12/24 01:12:50;;;;;;;30.20;12.10;;;;;;;7.21;100.00;99060.48;103401;1306;22476;-59
2022/12/24 01:15:21;;;;;;;28.30;12.50;;;;;;;7.19;100.00;99059.04;103331;1306;25788;-59
2022/12/24 01:17:52;;;;;;;30.60;13.90;;;;;;;7.20;100.00;99056.83;103434;1281;25730;-60
2022/12/24 01:20:25;;;;;;;30.70;13.60;;;;;;;7.23;100.00;99059.29;103406;1292;23353;-58
2022/12/24 01:22:59;;;;;;;32.30;13.60;;;;;;;7.25;100.00;99058.52;103402;1285;25474;-60
2022/12/24 01:25:31;;;;;;;38.90;15.80;;;;;;;7.27;100.00;99053.80;103360;1285;22495;-59
2022/12/24 01:28:03;;;;;;;35.40;15.90;;;;;;;7.28;100.00;99052.69;103420;1299;22472;-60
2022/12/24 01:30:35;;;;;;;39.40;16.50;;;;;;;7.29;100.00;99049.16;103436;1284;22482;-59
2022/12/24 01:33:06;;;;;;;35.40;14.30;;;;;;;7.28;100.00;99053.30;103425;1301;22467;-60
2022/12/24 01:35:41;;;;;;;33.30;14.60;;;;;;;7.30;100.00;99053.93;103453;1281;22468;-58
2022/12/24 01:38:14;;;;;;;33.10;13.40;;;;;;;7.29;100.00;99054.06;103497;1283;22517;-58
2022/12/24 01:43:35;;;;;;;41.50;17.20;;;;;;;7.27;100.00;99045.77;103336;1284;22411;-58
2022/12/24 01:46:15;;;;;;;33.30;15.70;;;;;;;7.25;100.00;99051.35;103519;1306;24689;-59
2022/12/24 01:48:55;;;;;;;33.20;13.30;;;;;;;7.24;100.00;99048.20;103323;1280;22737;-60
2022/12/24 01:51:34;;;;;;;31.90;15.00;;;;;;;7.23;100.00;99046.48;103456;1280;22479;-59
2022/12/24 01:54:10;;;;;;;30.30;11.80;;;;;;;7.23;100.00;99047.38;103595;1285;22584;-61
2022/12/24 01:56:45;;;;;;;30.70;13.60;;;;;;;7.22;100.00;99050.25;103365;1285;22562;-60
2022/12/24 01:59:20;;;;;;;24.60;11.50;;;;;;;7.22;100.00;99051.52;103447;1285;22480;-62
2022/12/24 02:01:54;;;;;;;26.40;12.20;;;;;;;7.21;100.00;99054.67;103347;1306;22493;-62
2022/12/24 02:04:33;;;;;;;28.10;11.30;;;;;;;7.19;100.00;99057.33;103434;1284;25886;-62
2022/12/24 02:07:06;;;;;;;26.00;11.10;;;;;;;7.17;100.00;99049.84;103823;1306;22479;-62
2022/12/24 02:09:41;;;;;;;28.40;11.60;;;;;;;7.16;100.00;99048.95;103325;1306;24244;-62
2022/12/24 02:12:16;;;;;;;24.80;10.30;;;;;;;7.15;100.00;99048.04;103177;1284;24946;-62
2022/12/24 02:14:48;;;;;;;24.30;10.90;;;;;;;7.13;100.00;99042.30;103500;1305;25399;-59
2022/12/24 02:17:30;;;;;;;30.40;11.50;;;;;;;7.11;100.00;99039.91;103508;1285;25881;-59
2022/12/24 02:20:36;;;;;;;22.40;9.40;;;;;;;7.06;100.00;99038.89;103527;1297;22474;-59
2022/12/24 02:23:28;;;;;;;29.60;11.20;;;;;;;7.03;100.00;99031.58;103460;1290;22601;-59
2022/12/24 02:26:14;;;;;;;26.90;9.60;;;;;;;7.01;100.00;99034.61;103423;1306;25382;-58
2022/12/24 02:29:06;;;;;;;25.80;10.20;;;;;;;6.97;100.00;99033.01;103257;1284;24382;-62
2022/12/24 02:31:42;;;;;;;18.50;6.40;;;;;;;6.95;100.00;99030.81;103347;1283;22771;-61
2022/12/24 02:34:19;;;;;;;19.20;6.00;;;;;;;6.94;100.00;99030.02;103397;1306;22468;-59
2022/12/24 02:36:59;;;;;;;13.80;4.10;;;;;;;6.94;100.00;99027.50;103405;1283;22495;-59
2022/12/24 02:39:37;;;;;;;17.00;4.60;;;;;;;6.94;100.00;99019.64;103556;1306;22958;-60
2022/12/24 02:42:16;;;;;;;11.90;2.90;;;;;;;6.95;100.00;99023.34;103388;1299;22528;-60
2022/12/24 02:44:54;;;;;;;14.80;3.20;;;;;;;6.95;100.00;99030.66;103522;1306;22584;-56
2022/12/24 02:47:28;;;;;;;11.60;3.10;;;;;;;6.97;100.00;99035.38;102730;1283;1361195;-58
2022/12/24 02:50:04;;;;;;;10.10;2.80;;;;;;;7.00;100.00;99040.46;103432;1285;22504;-57
2022/12/24 02:52:38;;;;;;;14.10;3.30;;;;;;;7.03;100.00;99036.47;103508;1281;22485;-59
2022/12/24 02:55:14;;;;;;;12.20;3.40;;;;;;;7.05;100.00;99040.17;103399;1285;25390;-59
2022/12/24 02:58:10;;;;;;;11.90;4.00;;;;;;;7.06;100.00;99035.95;103309;1282;23746;-59
2022/12/24 03:00:54;;;;;;;14.00;5.30;;;;;;;7.05;100.00;99037.05;103418;1301;22499;-58
2022/12/24 03:03:38;;;;;;;16.30;6.60;;;;;;;7.06;100.00;99037.01;103466;1281;22485;-58
2022/12/24 03:06:24;;;;;;;16.50;6.70;;;;;;;7.08;100.00;99038.34;103407;1290;22479;-59
2022/12/24 03:09:02;;;;;;;19.00;7.70;;;;;;;7.08;100.00;99034.42;103439;1306;22872;-59
2022/12/24 03:11:36;;;;;;;18.40;8.10;;;;;;;7.10;100.00;99035.13;103520;1284;22464;-59
2022/12/24 03:14:08;;;;;;;17.30;7.90;;;;;;;7.11;100.00;99037.94;103492;1300;26629;-62
2022/12/24 03:16:41;;;;;;;17.90;6.50;;;;;;;7.12;100.00;99045.05;103560;1278;23982;-61
2022/12/24 03:19:13;;;;;;;14.30;6.20;;;;;;;7.12;100.00;99043.46;103461;1285;23090;-58
2022/12/24 03:21:46;;;;;;;18.30;6.40;;;;;;;7.13;100.00;99045.73;103454;1283;22463;-59
2022/12/24 03:24:19;;;;;;;19.10;6.80;;;;;;;7.13;100.00;99044.27;103445;1281;22479;-59
2022/12/24 03:26:51;;;;;;;17.60;6.80;;;;;;;7.15;100.00;99044.04;103478;1301;24254;-59
2022/12/24 03:29:23;;;;;;;17.40;4.80;;;;;;;7.15;100.00;99040.91;103473;1297;24260;-58
2022/12/24 03:32:00;;;;;;;17.50;5.70;;;;;;;7.16;100.00;99038.95;103541;1283;25437;-60
2022/12/24 03:34:32;;;;;;;15.80;4.70;;;;;;;7.16;100.00;99039.81;103394;1306;22494;-58
2022/12/24 03:37:04;;;;;;;12.20;3.60;;;;;;;7.17;100.00;99040.64;103550;1277;25272;-60
2022/12/24 03:39:38;;;;;;;12.90;3.60;;;;;;;7.18;100.00;99045.30;103368;1291;22433;-59
2022/12/24 03:42:09;;;;;;;13.40;3.40;;;;;;;7.18;100.00;99045.90;103487;1291;22481;-59
2022/12/24 03:44:43;;;;;;;12.40;3.00;;;;;;;7.18;100.00;99042.83;103534;1285;25348;-59
2022/12/24 03:47:15;;;;;;;10.60;2.80;;;;;;;7.19;100.00;99046.63;103547;1306;24872;-60
2022/12/24 03:49:47;;;;;;;11.40;2.70;;;;;;;7.21;100.00;99051.80;103663;1291;22444;-61
2022/12/24 03:52:18;;;;;;;9.60;2.20;;;;;;;7.22;100.00;99053.73;103454;1306;25393;-59
2022/12/24 03:54:50;;;;;;;9.90;2.40;;;;;;;7.24;100.00;99059.26;103545;1306;24719;-60
2022/12/24 03:57:24;;;;;;;10.00;2.40;;;;;;;7.26;100.00;99061.52;103500;1285;22418;-59
2022/12/24 03:59:55;;;;;;;11.10;1.90;;;;;;;7.29;100.00;99069.13;103479;1306;22486;-58
2022/12/24 04:02:31;;;;;;;12.30;2.80;;;;;;;7.31;100.00;99067.41;103578;1284;24273;-59
2022/12/24 04:05:02;;;;;;;10.60;2.50;;;;;;;7.33;100.00;99064.77;103489;1283;23833;-60
2022/12/24 04:07:37;;;;;;;9.00;2.10;;;;;;;7.35;100.00;99067.06;103509;1301;22731;-61
2022/12/24 04:10:11;;;;;;;8.50;2.60;;;;;;;7.35;100.00;99063.38;103559;1306;22482;-59
2022/12/24 04:12:43;;;;;;;13.40;3.30;;;;;;;7.37;100.00;99062.45;104063;1306;25368;-58
2022/12/24 04:15:14;;;;;;;8.30;1.90;;;;;;;7.37;100.00;99066.48;103452;1306;22488;-57
2022/12/24 04:17:46;;;;;;;10.30;2.00;;;;;;;7.37;100.00;99066.10;103514;1306;22478;-57
2022/12/24 04:20:20;;;;;;;7.80;1.50;;;;;;;7.38;100.00;99067.15;103426;1285;24380;-59
2022/12/24 04:22:53;;;;;;;8.40;1.50;;;;;;;7.39;100.00;99070.66;103464;1306;22467;-61
2022/12/24 04:25:26;;;;;;;7.50;1.30;;;;;;;7.39;100.00;99071.77;103356;1282;22482;-61
2022/12/24 04:28:00;;;;;;;7.60;1.10;;;;;;;7.39;100.00;99071.02;103165;1283;22472;-63
2022/12/24 04:30:33;;;;;;;7.30;1.20;;;;;;;7.40;100.00;99066.68;103294;1305;24275;-63
2022/12/24 04:33:04;;;;;;;11.60;1.70;;;;;;;7.42;100.00;99065.55;103496;1306;24195;-62
2022/12/24 04:35:38;;;;;;;5.50;1.30;;;;;;;7.44;100.00;99067.94;103383;1306;24375;-63
2022/12/24 04:38:09;;;;;;;8.30;1.30;;;;;;;7.48;100.00;99070.41;103467;1291;24375;-61
2022/12/24 04:40:46;;;;;;;7.90;1.50;;;;;;;7.53;100.00;99076.23;103326;1306;22464;-61
2022/12/24 04:43:17;;;;;;;7.60;1.10;;;;;;;7.57;100.00;99071.84;103379;1278;25287;-63
2022/12/24 04:45:48;;;;;;;7.50;1.30;;;;;;;7.62;100.00;99069.08;103327;1306;24783;-62
2022/12/24 04:48:20;;;;;;;5.20;1.00;;;;;;;7.67;100.00;99071.91;103534;1306;22473;-61
2022/12/24 04:50:52;;;;;;;6.00;1.10;;;;;;;7.71;100.00;99069.58;103380;1281;25405;-60
2022/12/24 04:53:26;;;;;;;5.70;1.10;;;;;;;7.76;100.00;99072.82;103597;1278;25421;-60
2022/12/24 04:56:02;;;;;;;4.90;1.40;;;;;;;7.79;100.00;99074.33;103462;1291;22486;-60
2022/12/24 04:58:34;;;;;;;5.50;0.90;;;;;;;7.83;100.00;99075.94;103411;1285;24260;-59
2022/12/24 05:01:10;;;;;;;6.50;1.40;;;;;;;7.87;100.00;99075.92;103454;1306;25877;-59
2022/12/24 05:03:41;;;;;;;4.80;1.50;;;;;;;7.90;100.00;99079.05;103534;1281;22457;-58
2022/12/24 05:06:15;;;;;;;3.20;0.90;;;;;;;7.93;100.00;99088.02;103515;1283;25424;-59
2022/12/24 05:08:47;;;;;;;6.20;1.20;;;;;;;7.96;100.00;99085.36;103499;1306;22492;-60
2022/12/24 05:11:21;;;;;;;9.40;1.10;;;;;;;7.99;100.00;99088.08;103487;1283;22468;-59
2022/12/24 05:13:53;;;;;;;4.50;1.10;;;;;;;8.02;100.00;99095.29;103371;1281;25229;-60
2022/12/24 05:16:25;;;;;;;4.90;1.20;;;;;;;8.05;100.00;99090.57;103490;1291;22607;-61
2022/12/24 05:18:59;;;;;;;4.80;0.80;;;;;;;8.08;100.00;99097.94;103415;1283;25387;-58
2022/12/24 05:21:32;;;;;;;6.30;1.00;;;;;;;8.10;100.00;99105.89;103451;1283;22582;-58
2022/12/24 05:26:56;;;;;;;3.50;1.00;;;;;;;8.14;100.00;99109.67;103318;1301;24375;-63
2022/12/24 05:29:28;;;;;;;4.90;0.90;;;;;;;8.18;100.00;99104.15;103580;1283;25353;-63
2022/12/24 05:31:59;;;;;;;6.80;0.90;;;;;;;8.26;100.00;99110.20;103200;1281;22418;-63
2022/12/24 05:34:30;;;;;;;6.20;0.70;;;;;;;8.31;100.00;99117.00;103181;1283;22642;-63
2022/12/24 05:37:02;;;;;;;4.90;0.80;;;;;;;8.36;100.00;99120.99;103317;1306;22443;-62
2022/12/24 05:39:34;;;;;;;9.70;1.00;;;;;;;8.39;100.00;99124.81;103247;1285;22465;-62
2022/12/24 05:42:05;;;;;;;7.20;0.90;;;;;;;8.41;100.00;99130.79;103344;1277;22520;-62
2022/12/24 05:44:44;;;;;;;8.40;0.90;;;;;;;8.42;100.00;99131.42;103347;1306;23982;-63
2022/12/24 05:47:15;;;;;;;11.30;1.00;;;;;;;8.43;100.00;99135.02;103303;1301;22467;-62
2022/12/24 05:49:47;;;;;;;4.70;1.30;;;;;;;8.45;100.00;99142.16;103439;1275;22753;-60
2022/12/24 05:52:18;;;;;;;3.90;0.70;;;;;;;8.46;100.00;99146.07;103666;1306;22540;-58
2022/12/24 05:54:50;;;;;;;7.20;1.20;;;;;;;8.46;100.00;99146.20;103476;1285;22939;-60
2022/12/24 05:57:22;;;;;;;6.60;2.10;;;;;;;8.46;100.00;99148.24;103488;1283;25398;-58
2022/12/24 05:59:55;;;;;;;8.00;1.10;;;;;;;8.47;100.00;99152.96;103477;1306;22472;-60
2022/12/24 06:02:26;;;;;;;8.10;1.40;;;;;;;8.48;100.00;99158.73;103789;1283;22476;-60
2022/12/24 06:04:58;;;;;;;12.10;2.60;;;;;;;8.48;100.00;99161.02;103530;1306;22965;-59
2022/12/24 06:07:31;;;;;;;9.10;1.30;;;;;;;8.49;100.00;99158.99;103558;1280;23496;-61
2022/12/24 06:10:06;;;;;;;4.80;1.00;;;;;;;8.49;100.00;99164.70;103358;1278;22486;-62
2022/12/24 06:12:37;;;;;;;6.70;1.00;;;;;;;8.49;100.00;99166.08;103324;1306;25428;-62
2022/12/24 06:15:11;;;;;;;7.50;1.40;;;;;;;8.48;100.00;99171.73;103390;1285;25396;-62
2022/12/24 06:17:43;;;;;;;5.80;1.20;;;;;;;8.48;100.00;99174.06;104072;1285;25292;-62
2022/12/24 06:20:15;;;;;;;9.90;1.50;;;;;;;8.47;100.00;99181.17;103346;1306;22465;-60
2022/12/24 06:22:46;;;;;;;8.50;1.40;;;;;;;8.48;100.00;99189.83;103304;1306;25979;-63
2022/12/24 06:25:18;;;;;;;8.50;1.30;;;;;;;8.48;100.00;99184.88;103286;1306;22480;-62
2022/12/24 06:27:50;;;;;;;9.20;1.40;;;;;;;8.48;100.00;99188.58;103252;1306;22474;-61
2022/12/24 06:30:21;;;;;;;7.60;1.40;;;;;;;8.48;100.00;99189.94;103181;1283;22469;-63
2022/12/24 06:32:53;;;;;;;11.50;2.00;;;;;;;8.48;100.00;99192.36;103251;1301;25267;-62
2022/12/24 06:35:27;;;;;;;6.50;1.60;;;;;;;8.47;100.00;99199.16;103325;1280;22482;-62
2022/12/24 06:37:59;;;;;;;8.40;1.70;;;;;;;8.45;100.00;99199.97;103271;1306;25269;-61
2022/12/24 06:40:30;;;;;;;10.30;2.20;;;;;;;8.45;100.00;99207.29;103368;1281;23680;-63
2022/12/24 06:43:02;;;;;;;8.60;1.80;;;;;;;8.45;100.00;99210.42;103163;1301;22858;-64
2022/12/24 06:45:34;;;;;;;10.00;2.50;;;;;;;8.44;100.00;99207.73;103022;1281;22516;-65
2022/12/24 06:48:06;;;;;;;9.70;1.70;;;;;;;8.45;100.00;99214.08;103175;1283;22465;-63
2022/12/24 06:50:38;;;;;;;9.70;1.50;;;;;;;8.45;100.00;99214.78;103101;1277;22473;-64
2022/12/24 06:53:09;;;;;;;9.20;1.40;;;;;;;8.46;100.00;99217.67;102987;1291;22549;-61
2022/12/24 06:55:41;;;;;;;7.30;1.40;;;;;;;8.47;100.00;99223.30;103116;1300;24860;-64
2022/12/24 06:58:13;;;;;;;8.60;1.20;;;;;;;8.49;100.00;99228.22;103110;1303;22478;-64
2022/12/24 07:00:44;;;;;;;12.90;1.20;;;;;;;8.49;100.00;99234.55;103190;1280;22432;-62
2022/12/24 07:03:20;;;;;;;8.90;1.40;;;;;;;8.50;100.00;99242.05;103287;1283;22474;-64
2022/12/24 07:05:52;;;;;;;8.10;1.20;;;;;;;8.49;100.00;99243.76;103076;1281;22477;-64
2022/12/24 07:08:23;;;;;;;7.00;1.10;;;;;;;8.50;100.00;99244.34;103190;1291;22473;-62
2022/12/24 07:10:55;;;;;;;5.50;1.20;;;;;;;8.51;100.00;99249.27;103153;1306;24330;-64
2022/12/24 07:13:28;;;;;;;6.90;1.30;;;;;;;8.51;100.00;99255.16;103114;1298;22866;-63
2022/12/24 07:16:03;;;;;;;6.10;1.00;;;;;;;8.51;100.00;99261.47;103157;1298;25318;-64
2022/12/24 07:18:35;;;;;;;5.60;1.00;;;;;;;8.51;100.00;99269.58;102895;1277;25022;-66
2022/12/24 07:21:08;;;;;;;7.20;1.10;;;;;;;8.51;100.00;99272.80;102877;1283;22586;-65
2022/12/24 07:23:39;;;;;;;4.70;0.90;;;;;;;8.51;100.00;99277.27;102905;1306;25350;-64
2022/12/24 07:26:10;;;;;;;5.20;0.90;;;;;;;8.51;100.00;99283.67;102994;1305;25376;-63
2022/12/24 07:28:42;;;;;;;7.50;1.20;;;;;;;8.51;100.00;99289.40;103128;1284;25418;-64
2022/12/24 07:31:16;;;;;;;5.20;1.00;;;;;;;8.52;100.00;99296.84;103216;1277;25368;-64
2022/12/24 07:33:48;;;;;;;10.00;0.90;;;;;;;8.52;100.00;99299.38;102930;1284;22484;-62
2022/12/24 07:36:21;;;;;;;6.10;1.20;;;;;;;8.52;100.00;99309.23;103161;1277;24321;-61
2022/12/24 07:38:53;;;;;;;5.10;1.00;;;;;;;8.53;100.00;99316.84;103096;1283;22483;-62
2022/12/24 07:41:24;;;;;;;3.60;0.70;;;;;;;8.53;100.00;99322.85;103176;1291;22444;-63
2022/12/24 07:43:55;;;;;;;4.60;1.00;;;;;;;8.54;100.00;99326.91;103084;1306;22484;-61
2022/12/24 07:46:27;;;;;;;3.70;0.80;;;;;;;8.54;100.00;99320.94;103403;1282;22483;-63
2022/12/24 07:48:58;;;;;;;6.00;1.10;;;;;;;8.55;100.00;99328.54;103253;1276;24321;-58
2022/12/24 07:51:31;;;;;;;4.50;1.00;;;;;;;8.56;100.00;99333.97;103234;1306;22477;-62
2022/12/24 07:54:03;;;;;;;6.00;1.20;;;;;;;8.56;100.00;99333.41;103137;1301;22607;-64
2022/12/24 07:56:35;;;;;;;7.00;1.40;;;;;;;8.56;100.00;99340.23;103064;1277;25230;-61
2022/12/24 07:59:07;;;;;;;7.20;1.70;;;;;;;8.56;100.00;99351.17;103189;1281;22478;-62
2022/12/24 08:01:38;;;;;;;6.20;1.00;;;;;;;8.56;100.00;99359.71;103064;1306;25276;-61
2022/12/24 08:04:10;;;;;;;4.80;1.00;;;;;;;8.56;100.00;99371.48;103135;1278;22549;-61
2022/12/24 08:06:44;;;;;;;6.30;1.10;;;;;;;8.54;100.00;99366.87;103406;1298;23070;-61
2022/12/24 08:09:16;;;;;;;7.20;1.30;;;;;;;8.54;100.00;99365.00;103203;1284;25259;-67
2022/12/24 08:11:48;;;;;;;7.60;1.50;;;;;;;8.53;100.00;99366.14;103212;1284;25333;-62
2022/12/24 08:14:20;;;;;;;6.40;1.50;;;;;;;8.53;100.00;99374.90;103160;1277;25299;-63
2022/12/24 08:16:52;;;;;;;5.80;1.70;;;;;;;8.53;100.00;99382.94;103176;1281;26569;-60
2022/12/24 08:19:24;;;;;;;7.20;1.80;;;;;;;8.52;100.00;99390.86;103211;1299;22848;-65
2022/12/24 08:21:57;;;;;;;7.50;2.10;;;;;;;8.53;100.00;99394.41;103325;1281;27868;-62
2022/12/24 08:24:28;;;;;;;6.20;2.20;;;;;;;8.53;100.00;99398.46;103329;1282;22731;-69
2022/12/24 08:27:00;;;;;;;7.70;2.30;;;;;;;8.53;100.00;99406.64;103010;1277;23084;-62
2022/12/24 08:29:31;;;;;;;7.40;2.20;;;;;;;8.51;100.00;99413.16;103169;1284;26721;-61
2022/12/24 08:32:03;;;;;;;9.30;2.90;;;;;;;8.50;100.00;99421.64;103795;1282;24260;-62
2022/12/24 08:34:35;;;;;;;9.40;2.80;;;;;;;8.49;100.00;99424.80;103221;1283;22432;-62
2022/12/24 08:37:06;;;;;;;8.50;3.20;;;;;;;8.48;100.00;99434.72;103231;1306;22493;-61
2022/12/24 08:39:38;;;;;;;9.80;3.10;;;;;;;8.48;100.00;99435.12;103264;1285;22482;-61
2022/12/24 08:42:09;;;;;;;8.80;2.80;;;;;;;8.48;100.00;99441.34;103167;1306;22479;-61
2022/12/24 08:44:40;;;;;;;11.60;3.60;;;;;;;8.47;100.00;99447.95;103216;1285;25596;-61
2022/12/24 08:47:12;;;;;;;11.10;3.70;;;;;;;8.47;100.00;99452.43;103299;1285;22468;-61
2022/12/24 08:49:44;;;;;;;11.30;3.50;;;;;;;8.46;100.00;99454.48;103285;1292;22451;-60
2022/12/24 08:52:15;;;;;;;10.40;3.40;;;;;;;8.44;100.00;99463.27;103107;1306;22473;-64
2022/12/24 08:54:46;;;;;;;10.60;3.50;;;;;;;8.42;100.00;99467.19;103211;1275;22431;-61
2022/12/24 08:57:20;;;;;;;12.20;3.50;;;;;;;8.41;100.00;99469.30;103222;1283;24263;-60
2022/12/24 08:59:51;;;;;;;10.20;3.50;;;;;;;8.40;100.00;99471.45;103242;1282;24280;-62
2022/12/24 09:02:23;;;;;;;10.10;3.60;;;;;;;8.38;100.00;99478.10;103368;1306;22877;-61
2022/12/24 09:04:55;;;;;;;8.70;3.10;;;;;;;8.38;100.00;99483.40;103206;1306;22613;-62
2022/12/24 09:07:27;;;;;;;11.00;3.50;;;;;;;8.36;100.00;99488.95;103378;1282;25128;-62
2022/12/24 09:09:58;;;;;;;10.80;3.10;;;;;;;8.35;100.00;99493.38;103339;1282;23916;-62
2022/12/24 09:12:30;;;;;;;8.80;3.00;;;;;;;8.34;100.00;99496.70;103183;1282;22533;-61
2022/12/24 09:15:03;;;;;;;10.90;3.20;;;;;;;8.34;100.00;99498.00;103810;1282;25235;-61
2022/12/24 09:17:34;;;;;;;11.60;3.50;;;;;;;8.33;100.00;99500.06;103290;1274;22506;-59
2022/12/24 09:20:07;;;;;;;11.10;3.30;;;;;;;8.31;100.00;99497.11;103331;1285;26515;-60
2022/12/24 09:22:40;;;;;;;9.20;3.10;;;;;;;8.32;100.00;99498.90;103291;1278;25581;-60
2022/12/24 09:25:12;;;;;;;11.20;3.40;;;;;;;8.32;100.00;99500.41;103196;1306;24371;-66
2022/12/24 09:27:43;;;;;;;11.20;3.80;;;;;;;8.32;100.00;99509.16;103419;1274;24207;-61
2022/12/24 09:30:16;;;;;;;12.30;4.00;;;;;;;8.31;100.00;99512.48;103519;1282;24264;-58
2022/12/24 09:32:48;;;;;;;12.50;4.30;;;;;;;8.30;100.00;99515.23;103635;1282;22585;-61
2022/12/24 09:35:19;;;;;;;12.00;4.20;;;;;;;8.30;100.00;99521.30;103257;1291;22494;-60
2022/12/24 09:38:01;;;;;;;9.90;3.30;;;;;;;8.32;100.00;99523.05;103144;1277;24050;-61
2022/12/24 09:40:38;;;;;;;8.90;2.70;;;;;;;8.32;100.00;99520.89;103076;1301;23218;-63
2022/12/24 09:43:17;;;;;;;10.00;3.80;;;;;;;8.34;100.00;99524.20;102961;1282;22752;-63
2022/12/24 09:45:59;;;;;;;11.40;4.10;;;;;;;8.35;100.00;99534.64;103157;1281;22462;-63
2022/12/24 09:48:34;;;;;;;11.60;3.70;;;;;;;8.35;100.00;99540.30;103315;1282;22470;-61
2022/12/24 09:51:08;;;;;;;15.30;5.20;;;;;;;8.33;100.00;99543.30;103224;1282;24414;-61
2022/12/24 09:53:43;;;;;;;11.40;3.50;;;;;;;8.33;100.00;99546.90;103161;1278;25402;-61
2022/12/24 09:56:20;;;;;;;11.90;3.50;;;;;;;8.33;100.00;99558.37;103524;1274;22492;-68
2022/12/24 09:58:58;;;;;;;9.40;2.80;;;;;;;8.32;100.00;99562.45;103173;1274;22516;-62
2022/12/24 10:01:32;;;;;;;12.50;3.60;;;;;;;8.32;100.00;99571.84;103278;1275;23242;-62
2022/12/24 10:04:07;;;;;;;11.00;3.40;;;;;;;8.31;100.00;99577.60;103193;1274;25382;-61
2022/12/24 10:06:47;;;;;;;10.10;2.60;;;;;;;8.32;100.00;99579.63;103098;1274;22468;-63
2022/12/24 10:09:28;;;;;;;9.40;2.80;;;;;;;8.31;100.00;99573.09;103103;1282;22470;-59
2022/12/24 10:12:08;;;;;;;9.50;2.70;;;;;;;8.30;100.00;99577.67;103265;1282;25268;-60
2022/12/24 10:14:58;;;;;;;10.60;2.80;;;;;;;8.29;100.00;99587.58;103204;1274;22480;-60
2022/12/24 10:17:48;;;;;;;8.00;2.60;;;;;;;8.27;100.00;99589.16;103178;1282;25036;-60
2022/12/24 10:20:37;;;;;;;8.00;2.60;;;;;;;8.24;100.00;99592.16;103275;1274;22475;-60
2022/12/24 10:23:18;;;;;;;8.70;2.90;;;;;;;8.21;100.00;99601.80;103257;1282;22472;-60
2022/12/24 10:25:52;;;;;;;;;;;;;;;8.18;100.00;99602.33;103302;1282;23351;-58
2022/12/24 10:28:34;;;;;;;7.20;2.00;;;;;;;8.15;100.00;99603.62;103357;1291;22966;-62
2022/12/24 10:31:08;;;;;;;11.60;3.50;;;;;;;8.13;100.00;99612.19;103380;1274;22476;-60
2022/12/24 10:33:44;;;;;;;13.10;4.30;;;;;;;8.11;100.00;99620.49;103338;1300;22507;-58
2022/12/24 10:36:19;;;;;;;10.30;2.70;;;;;;;8.10;100.00;99626.68;103300;1306;22590;-60
2022/12/24 10:38:51;;;;;;;8.20;2.20;;;;;;;8.08;100.00;99630.19;103196;1306;22468;-61
2022/12/24 10:41:23;;;;;;;7.50;2.00;;;;;;;8.07;100.00;99620.45;103150;1275;22471;-61
2022/12/24 10:43:56;;;;;;;9.20;2.80;;;;;;;8.07;100.00;99625.77;103492;1286;22741;-59
2022/12/24 10:46:36;;;;;;;8.50;2.30;;;;;;;8.07;100.00;99630.86;103087;1298;25189;-58
2022/12/24 10:49:12;;;;;;;9.30;2.60;;;;;;;8.07;100.00;99641.98;103291;1282;22473;-61
2022/12/24 10:51:50;;;;;;;10.80;2.60;;;;;;;8.06;100.00;99642.02;103424;1278;23731;-62
2022/12/24 10:54:24;;;;;;;10.80;2.70;;;;;;;8.06;100.00;99646.73;103252;1290;25390;-60
2022/12/24 10:56:59;;;;;;;8.60;2.80;;;;;;;8.05;100.00;99657.48;103266;1306;22786;-58
2022/12/24 10:59:34;;;;;;;10.20;3.00;;;;;;;8.04;100.00;99664.23;103428;1282;24234;-59
2022/12/24 11:02:25;;;;;;;7.20;2.10;;;;;;;8.03;100.00;99670.42;103403;1298;22468;-62
2022/12/24 11:04:59;;;;;;;7.60;1.90;;;;;;;8.01;100.00;99673.30;103292;1289;25391;-62
2022/12/24 11:07:32;;;;;;;7.70;2.00;;;;;;;7.99;100.00;99682.52;103553;1280;22786;-62
2022/12/24 11:10:08;;;;;;;7.40;1.80;;;;;;;7.98;100.00;99681.95;103309;1274;25313;-62
2022/12/24 11:12:48;;;;;;;8.00;2.30;;;;;;;7.96;100.00;99687.61;103202;1277;22472;-61
2022/12/24 11:15:23;;;;;;;8.90;2.10;;;;;;;7.93;100.00;99683.47;103160;1275;22492;-61
2022/12/24 11:18:03;;;;;;;7.40;2.30;;;;;;;7.91;100.00;99688.02;103403;1306;22614;-58
2022/12/24 11:20:36;;;;;;;11.20;3.00;;;;;;;7.91;100.00;99692.61;103300;1282;25378;-59
2022/12/24 11:23:15;;;;;;;8.20;2.40;;;;;;;7.92;100.00;99695.42;103233;1274;22549;-60
2022/12/24 11:25:50;;;;;;;11.10;3.20;;;;;;;7.93;100.00;99699.17;103594;1291;24287;-60
2022/12/24 11:28:25;;;;;;;10.30;3.30;;;;;;;7.94;100.00;99698.74;103788;1278;23813;-60
2022/12/24 11:31:04;;;;;;;9.00;2.70;;;;;;;7.93;100.00;99701.87;103280;1282;22474;-61
2022/12/24 11:33:48;;;;;;;8.20;2.50;;;;;;;7.92;100.00;99706.85;103375;1282;22480;-61
2022/12/24 11:36:25;;;;;;;8.50;2.20;;;;;;;7.91;100.00;99715.31;103196;1281;22561;-64
2022/12/24 11:38:59;;;;;;;5.80;1.80;;;;;;;7.89;100.00;99714.89;103080;1275;22488;-60
2022/12/24 11:41:38;;;;;;;5.90;1.80;;;;;;;7.86;100.00;99720.50;103337;1291;22425;-58
2022/12/24 11:44:12;;;;;;;5.60;1.80;;;;;;;7.85;100.00;99726.28;103397;1290;22477;-59
2022/12/24 11:46:45;;;;;;;7.80;2.10;;;;;;;7.84;100.00;99730.06;103335;1291;22465;-61
2022/12/24 11:49:24;;;;;;;10.00;2.20;;;;;;;7.84;100.00;99733.80;103439;1278;22510;-61
2022/12/24 11:52:16;;;;;;;8.00;2.30;;;;;;;7.84;100.00;99734.41;103456;1291;22483;-59
2022/12/24 11:55:08;;;;;;;8.80;2.40;;;;;;;7.85;100.00;99738.81;103368;1280;22514;-59
2022/12/24 11:57:48;;;;;;;11.40;3.60;;;;;;;7.87;100.00;99739.45;103245;1274;24263;-60